createdAt,value
2018-05-29T00:00:00.109Z,23.32
2018-05-29T00:01:05.879Z,23.32
2018-05-29T00:02:11.695Z,23.32
2018-05-29T00:03:17.508Z,23.31
2018-05-29T00:04:23.293Z,23.27
2018-05-29T00:05:29.065Z,23.27
2018-05-29T00:06:35.601Z,23.26
2018-05-29T00:07:42.140Z,23.25
2018-05-29T00:08:47.932Z,23.25
2018-05-29T00:09:54.467Z,23.24
2018-05-29T00:11:00.240Z,23.24
2018-05-29T00:12:05.679Z,23.26
2018-05-29T00:13:11.444Z,23.25
2018-05-29T00:14:17.247Z,23.24
2018-05-29T00:15:23.787Z,23.23
2018-05-29T00:16:29.555Z,23.22
2018-05-29T00:17:35.335Z,23.22
2018-05-29T00:18:41.108Z,23.20
2018-05-29T00:19:46.912Z,23.18
2018-05-29T00:20:52.692Z,23.22
2018-05-29T00:21:58.470Z,23.20
2018-05-29T00:23:04.268Z,23.20
2018-05-29T00:24:10.053Z,23.14
2018-05-29T00:25:15.848Z,23.16
2018-05-29T00:26:21.619Z,23.17
2018-05-29T00:27:28.161Z,23.15
2018-05-29T00:28:33.930Z,23.13
2018-05-29T00:29:40.468Z,23.12
2018-05-29T00:30:46.275Z,23.13
2018-05-29T00:31:52.501Z,23.11
2018-05-29T00:32:58.281Z,23.07
2018-05-29T00:34:04.041Z,23.07
2018-05-29T00:35:09.814Z,23.04
2018-05-29T00:36:15.643Z,23.04
2018-05-29T00:37:22.188Z,23.04
2018-05-29T00:38:27.970Z,23.03
2018-05-29T00:39:33.744Z,23.04
2018-05-29T00:40:39.521Z,23.03
2018-05-29T00:41:46.851Z,23.02
2018-05-29T00:42:52.810Z,23.02
2018-05-29T00:43:58.587Z,22.99
2018-05-29T00:45:04.801Z,22.98
2018-05-29T00:46:10.575Z,22.99
2018-05-29T00:47:17.137Z,22.98
2018-05-29T00:48:22.907Z,22.95
2018-05-29T00:49:28.347Z,22.92
2018-05-29T00:50:34.867Z,22.90
2018-05-29T00:51:40.645Z,22.88
2018-05-29T00:52:46.458Z,22.86
2018-05-29T00:53:53.003Z,22.89
2018-05-29T00:55:15.528Z,22.85
2018-05-29T00:56:21.301Z,22.81
2018-05-29T00:57:27.075Z,22.81
2018-05-29T00:58:32.868Z,22.81
2018-05-29T00:59:38.649Z,22.80
2018-05-29T01:00:44.099Z,22.78
2018-05-29T01:01:49.873Z,22.75
2018-05-29T01:02:55.647Z,22.78
2018-05-29T01:04:02.210Z,22.72
2018-05-29T01:05:07.996Z,22.76
2018-05-29T01:06:13.769Z,22.73
2018-05-29T01:07:19.546Z,22.71
2018-05-29T01:08:26.085Z,22.70
2018-05-29T01:09:31.880Z,22.66
2018-05-29T01:10:37.656Z,22.65
2018-05-29T01:11:43.419Z,22.64
2018-05-29T01:12:49.960Z,22.65
2018-05-29T01:13:55.739Z,22.63
2018-05-29T01:15:01.544Z,22.60
2018-05-29T01:16:08.105Z,22.60
2018-05-29T01:17:13.867Z,22.59
2018-05-29T01:18:20.407Z,22.56
2018-05-29T01:19:26.174Z,22.55
2018-05-29T01:20:32.735Z,22.55
2018-05-29T01:21:39.270Z,22.54
2018-05-29T01:22:45.057Z,22.54
2018-05-29T01:23:50.829Z,22.53
2018-05-29T01:24:56.644Z,22.52
2018-05-29T01:26:02.438Z,22.49
2018-05-29T01:27:08.220Z,22.47
2018-05-29T01:28:13.989Z,22.46
2018-05-29T01:29:19.761Z,22.44
2018-05-29T01:30:25.541Z,22.38
2018-05-29T01:31:32.113Z,22.37
2018-05-29T01:32:37.881Z,22.38
2018-05-29T01:33:43.674Z,22.38
2018-05-29T01:34:50.217Z,22.41
2018-05-29T01:35:55.983Z,22.40
2018-05-29T01:37:02.548Z,22.40
2018-05-29T01:38:09.090Z,22.36
2018-05-29T01:39:15.670Z,22.38
2018-05-29T01:40:22.198Z,22.39
2018-05-29T01:41:27.963Z,22.38
2018-05-29T01:42:34.529Z,22.36
2018-05-29T01:43:41.074Z,22.32
2018-05-29T01:44:47.623Z,22.31
2018-05-29T01:45:54.164Z,22.27
2018-05-29T01:46:59.931Z,22.26
2018-05-29T01:48:05.518Z,22.25
2018-05-29T01:49:11.290Z,22.23
2018-05-29T01:50:17.063Z,22.20
2018-05-29T01:51:23.619Z,22.17
2018-05-29T01:52:30.174Z,22.16
2018-05-29T01:53:35.955Z,22.13
2018-05-29T01:54:41.724Z,22.13
2018-05-29T01:55:47.499Z,22.12
2018-05-29T01:56:54.035Z,22.12
2018-05-29T01:57:59.807Z,22.09
2018-05-29T01:59:06.367Z,22.09
2018-05-29T02:00:12.900Z,22.09
2018-05-29T02:01:18.674Z,22.12
2018-05-29T02:02:25.198Z,22.13
2018-05-29T02:03:30.972Z,22.13
2018-05-29T02:04:37.565Z,22.12
2018-05-29T02:05:43.523Z,22.07
2018-05-29T02:06:49.309Z,22.06
2018-05-29T02:07:55.074Z,22.09
2018-05-29T02:09:01.611Z,22.06
2018-05-29T02:10:08.625Z,22.03
2018-05-29T02:11:14.400Z,21.99
2018-05-29T02:12:20.182Z,21.96
2018-05-29T02:13:26.715Z,21.94
2018-05-29T02:14:34.002Z,21.90
2018-05-29T02:15:39.800Z,21.88
2018-05-29T02:16:45.570Z,21.84
2018-05-29T02:17:51.335Z,21.84
2018-05-29T02:18:57.106Z,21.83
2018-05-29T02:20:02.883Z,21.86
2018-05-29T02:21:08.683Z,21.86
2018-05-29T02:22:14.471Z,21.86
2018-05-29T02:23:20.334Z,21.86
2018-05-29T02:24:26.112Z,21.85
2018-05-29T02:25:31.904Z,21.83
2018-05-29T02:26:37.695Z,21.80
2018-05-29T02:27:43.475Z,21.80
2018-05-29T02:28:49.232Z,21.78
2018-05-29T02:29:55.003Z,21.82
2018-05-29T02:31:01.546Z,21.84
2018-05-29T02:32:07.340Z,21.84
2018-05-29T02:33:13.116Z,21.86
2018-05-29T02:34:18.896Z,21.85
2018-05-29T02:35:25.102Z,21.85
2018-05-29T02:36:30.906Z,21.82
2018-05-29T02:37:36.913Z,21.77
2018-05-29T02:38:42.679Z,21.73
2018-05-29T02:39:49.230Z,21.71
2018-05-29T02:40:56.499Z,21.70
2018-05-29T02:42:02.343Z,21.67
2018-05-29T02:43:08.140Z,21.65
2018-05-29T02:44:13.935Z,21.64
2018-05-29T02:45:19.732Z,21.66
2018-05-29T02:46:25.508Z,21.65
2018-05-29T02:47:31.343Z,21.64
2018-05-29T02:48:37.145Z,21.62
2018-05-29T02:49:42.933Z,21.65
2018-05-29T02:50:48.502Z,21.65
2018-05-29T02:51:55.035Z,21.62
2018-05-29T02:53:00.817Z,21.62
2018-05-29T02:54:06.602Z,21.61
2018-05-29T02:55:12.366Z,21.58
2018-05-29T02:56:18.985Z,21.59
2018-05-29T02:57:24.756Z,21.62
2018-05-29T02:58:30.526Z,21.57
2018-05-29T02:59:37.125Z,21.58
2018-05-29T03:00:42.903Z,21.57
2018-05-29T03:01:48.674Z,21.53
2018-05-29T03:02:55.207Z,21.53
2018-05-29T03:04:00.993Z,21.55
2018-05-29T03:05:06.787Z,21.51
2018-05-29T03:06:12.568Z,21.51
2018-05-29T03:07:18.339Z,21.50
2018-05-29T03:08:24.104Z,21.48
2018-05-29T03:09:29.874Z,21.46
2018-05-29T03:10:35.658Z,21.43
2018-05-29T03:11:41.441Z,21.49
2018-05-29T03:12:47.215Z,21.45
2018-05-29T03:13:53.421Z,21.48
2018-05-29T03:14:59.191Z,21.43
2018-05-29T03:16:04.684Z,21.41
2018-05-29T03:17:10.455Z,21.42
2018-05-29T03:18:16.302Z,21.44
2018-05-29T03:19:22.077Z,21.41
2018-05-29T03:20:28.610Z,21.41
2018-05-29T03:21:34.395Z,21.39
2018-05-29T03:22:40.187Z,21.39
2018-05-29T03:23:45.954Z,21.38
2018-05-29T03:24:52.498Z,21.36
2018-05-29T03:25:58.263Z,21.36
2018-05-29T03:27:04.501Z,21.35
2018-05-29T03:28:11.046Z,21.37
2018-05-29T03:29:17.199Z,21.36
2018-05-29T03:30:22.971Z,21.37
2018-05-29T03:31:28.735Z,21.37
2018-05-29T03:32:34.535Z,21.35
2018-05-29T03:33:41.074Z,21.35
2018-05-29T03:34:46.848Z,21.35
2018-05-29T03:35:53.421Z,21.39
2018-05-29T03:36:59.197Z,21.38
2018-05-29T03:38:04.428Z,21.39
2018-05-29T03:39:10.195Z,21.42
2018-05-29T03:40:15.976Z,21.42
2018-05-29T03:41:22.311Z,21.43
2018-05-29T03:42:28.083Z,21.44
2018-05-29T03:43:33.920Z,21.43
2018-05-29T03:44:39.686Z,21.46
2018-05-29T03:45:45.455Z,21.49
2018-05-29T03:46:51.218Z,21.54
2018-05-29T03:47:57.755Z,21.58
2018-05-29T03:49:03.551Z,21.58
2018-05-29T03:50:09.347Z,21.58
2018-05-29T03:51:15.120Z,21.60
2018-05-29T03:52:21.670Z,21.61
2018-05-29T03:53:28.209Z,21.62
2018-05-29T03:54:33.658Z,21.60
2018-05-29T03:55:40.202Z,21.65
2018-05-29T03:56:45.991Z,21.67
2018-05-29T03:57:51.780Z,21.67
2018-05-29T03:58:57.551Z,21.65
2018-05-29T04:00:03.878Z,21.67
2018-05-29T04:01:09.658Z,21.69
2018-05-29T04:02:16.195Z,21.71
2018-05-29T04:03:21.967Z,21.70
2018-05-29T04:04:27.742Z,21.71
2018-05-29T04:05:33.536Z,21.72
2018-05-29T04:06:40.070Z,21.74
2018-05-29T04:07:45.831Z,21.76
2018-05-29T04:08:52.424Z,21.72
2018-05-29T04:09:58.222Z,21.71
2018-05-29T04:11:04.195Z,21.75
2018-05-29T04:12:10.731Z,21.80
2018-05-29T04:13:16.512Z,21.78
2018-05-29T04:14:22.560Z,21.78
2018-05-29T04:15:28.474Z,21.81
2018-05-29T04:16:35.414Z,21.78
2018-05-29T04:17:41.202Z,21.79
2018-05-29T04:18:47.749Z,21.78
2018-05-29T04:22:14.721Z,21.85
2018-05-29T04:23:21.311Z,21.86
2018-05-29T04:24:27.119Z,21.89
2018-05-29T04:25:33.723Z,21.91
2018-05-29T04:26:39.539Z,21.93
2018-05-29T04:27:45.412Z,21.92
2018-05-29T04:28:51.244Z,21.88
2018-05-29T04:29:57.014Z,21.90
2018-05-29T04:31:02.794Z,21.95
2018-05-29T04:32:09.325Z,21.99
2018-05-29T04:33:15.127Z,21.98
2018-05-29T04:34:20.899Z,21.98
2018-05-29T04:35:26.694Z,21.98
2018-05-29T04:36:32.473Z,22.00
2018-05-29T04:37:38.368Z,22.00
2018-05-29T04:38:44.938Z,22.00
2018-05-29T04:39:50.703Z,22.00
2018-05-29T04:40:56.482Z,22.01
2018-05-29T04:42:02.280Z,21.99
2018-05-29T04:43:08.048Z,22.02
2018-05-29T04:44:13.848Z,22.09
2018-05-29T04:45:19.426Z,22.17
2018-05-29T04:46:25.200Z,22.13
2018-05-29T04:47:30.971Z,22.15
2018-05-29T04:48:36.747Z,22.14
2018-05-29T04:49:42.576Z,22.18
2018-05-29T04:50:48.539Z,22.21
2018-05-29T04:51:54.347Z,22.21
2018-05-29T04:52:59.951Z,22.25
2018-05-29T04:54:05.895Z,22.25
2018-05-29T04:55:11.699Z,22.26
2018-05-29T04:56:17.727Z,22.32
2018-05-29T04:57:23.502Z,22.35
2018-05-29T04:58:29.311Z,22.34
2018-05-29T04:59:35.086Z,22.35
2018-05-29T05:00:40.887Z,22.35
2018-05-29T05:01:46.685Z,22.32
2018-05-29T05:02:52.444Z,22.33
2018-05-29T05:03:58.207Z,22.32
2018-05-29T05:05:04.481Z,22.35
2018-05-29T05:06:10.267Z,22.33
2018-05-29T05:07:16.052Z,22.42
2018-05-29T05:08:21.829Z,22.47
2018-05-29T05:09:27.608Z,22.52
2018-05-29T05:10:34.882Z,22.52
2018-05-29T05:11:40.668Z,22.57
2018-05-29T05:12:46.443Z,22.51
2018-05-29T05:13:52.218Z,22.52
2018-05-29T05:14:58.755Z,22.58
2018-05-29T05:16:04.523Z,22.66
2018-05-29T05:17:11.080Z,22.68
2018-05-29T05:18:17.619Z,22.67
2018-05-29T05:19:24.905Z,22.72
2018-05-29T05:20:30.691Z,22.74
2018-05-29T05:21:36.455Z,22.79
2018-05-29T05:22:42.259Z,22.85
2018-05-29T05:23:48.794Z,22.83
2018-05-29T05:24:55.099Z,22.89
2018-05-29T05:26:00.868Z,22.93
2018-05-29T05:27:06.668Z,22.95
2018-05-29T05:28:12.454Z,22.98
2018-05-29T05:29:18.296Z,23.00
2018-05-29T05:30:24.063Z,23.04
2018-05-29T05:31:30.601Z,23.05
2018-05-29T05:32:36.378Z,23.10
2018-05-29T05:33:43.760Z,23.17
2018-05-29T05:34:50.299Z,23.12
2018-05-29T05:35:57.354Z,23.20
2018-05-29T05:37:03.130Z,23.19
2018-05-29T05:38:09.683Z,23.21
2018-05-29T05:39:15.470Z,23.26
2018-05-29T05:40:21.243Z,23.33
2018-05-29T05:41:27.035Z,23.35
2018-05-29T05:42:32.807Z,23.37
2018-05-29T05:43:38.580Z,23.39
2018-05-29T05:44:45.183Z,23.45
2018-05-29T05:45:50.973Z,23.50
2018-05-29T05:46:56.760Z,23.55
2018-05-29T05:48:02.708Z,23.65
2018-05-29T05:49:08.501Z,23.66
2018-05-29T05:50:15.371Z,23.74
2018-05-29T05:51:21.175Z,23.84
2018-05-29T05:52:26.954Z,23.87
2018-05-29T05:53:32.732Z,23.93
2018-05-29T05:54:38.528Z,23.95
2018-05-29T05:55:44.333Z,24.06
2018-05-29T05:56:50.107Z,24.19
2018-05-29T05:57:55.884Z,24.33
2018-05-29T05:59:01.655Z,24.56
2018-05-29T06:00:07.197Z,24.96
2018-05-29T06:01:13.035Z,25.47
2018-05-29T06:02:18.810Z,26.00
2018-05-29T06:03:24.604Z,26.57
2018-05-29T06:04:31.173Z,27.15
2018-05-29T06:05:37.705Z,27.69
2018-05-29T06:06:44.356Z,28.28
2018-05-29T06:07:50.147Z,28.75
2018-05-29T06:08:55.940Z,29.11
2018-05-29T06:10:02.485Z,29.43
2018-05-29T06:11:08.323Z,29.72
2018-05-29T06:12:14.127Z,30.07
2018-05-29T06:13:19.938Z,30.32
2018-05-29T06:14:25.758Z,30.63
2018-05-29T06:15:31.530Z,30.99
2018-05-29T06:16:38.071Z,31.28
2018-05-29T06:17:43.871Z,31.70
2018-05-29T06:18:49.664Z,31.90
2018-05-29T06:19:56.208Z,32.11
2018-05-29T06:21:01.979Z,32.33
2018-05-29T06:22:08.528Z,32.51
2018-05-29T06:23:15.859Z,32.57
2018-05-29T06:24:23.135Z,32.90
2018-05-29T06:25:29.851Z,33.02
2018-05-29T06:26:37.359Z,33.21
2018-05-29T06:27:44.530Z,33.51
2018-05-29T06:28:51.095Z,33.85
2018-05-29T06:29:56.880Z,34.00
2018-05-29T06:31:02.648Z,34.25
2018-05-29T06:32:08.427Z,34.38
2018-05-29T06:33:13.872Z,34.45
2018-05-29T06:34:19.668Z,34.56
2018-05-29T06:35:26.968Z,34.88
2018-05-29T06:36:33.513Z,35.01
2018-05-29T06:37:40.887Z,35.01
2018-05-29T06:38:46.708Z,35.20
2018-05-29T06:39:52.692Z,35.53
2018-05-29T06:40:59.244Z,35.60
2018-05-29T06:42:05.463Z,35.96
2018-05-29T06:43:11.248Z,36.28
2018-05-29T06:44:17.795Z,36.31
2018-05-29T06:45:24.372Z,36.41
2018-05-29T06:46:30.919Z,36.20
2018-05-29T06:47:37.483Z,36.23
2018-05-29T06:48:44.048Z,36.31
2018-05-29T06:49:50.594Z,36.51
2018-05-29T06:50:57.194Z,36.84
2018-05-29T06:52:03.020Z,36.84
2018-05-29T06:53:08.810Z,37.14
2018-05-29T06:54:14.830Z,37.28
2018-05-29T06:55:20.612Z,37.30
2018-05-29T06:56:26.416Z,37.35
2018-05-29T06:57:32.209Z,37.31
2018-05-29T06:58:37.984Z,37.39
2018-05-29T06:59:43.512Z,37.34
2018-05-29T07:00:50.165Z,37.28
2018-05-29T07:01:55.691Z,37.38
2018-05-29T07:03:01.212Z,37.67
2018-05-29T07:04:07.496Z,37.80
2018-05-29T07:05:13.199Z,38.17
2018-05-29T07:06:19.482Z,38.47
2018-05-29T07:07:25.012Z,38.52
2018-05-29T07:08:30.530Z,38.76
2018-05-29T07:09:36.800Z,38.83
2018-05-29T07:10:42.305Z,38.82
2018-05-29T07:11:48.583Z,38.62
2018-05-29T07:12:54.118Z,38.64
2018-05-29T07:13:59.624Z,38.75
2018-05-29T07:15:05.128Z,38.54
2018-05-29T07:16:10.631Z,38.33
2018-05-29T07:17:16.132Z,38.73
2018-05-29T07:18:23.283Z,38.95
2018-05-29T07:19:28.810Z,39.14
2018-05-29T07:20:34.361Z,39.10
2018-05-29T07:21:39.861Z,38.76
2018-05-29T07:22:46.124Z,38.62
2018-05-29T07:23:51.664Z,38.66
2018-05-29T07:24:57.177Z,38.65
2018-05-29T07:26:02.692Z,38.53
2018-05-29T07:27:08.966Z,38.31
2018-05-29T07:28:14.463Z,38.39
2018-05-29T07:29:20.060Z,38.47
2018-05-29T07:30:25.559Z,38.87
2018-05-29T07:31:31.829Z,39.25
2018-05-29T07:32:37.337Z,39.51
2018-05-29T07:33:43.607Z,39.82
2018-05-29T07:34:49.913Z,40.04
2018-05-29T07:35:55.427Z,40.18
2018-05-29T07:37:00.952Z,40.36
2018-05-29T07:38:06.455Z,40.25
2018-05-29T07:39:12.752Z,40.31
2018-05-29T07:40:18.295Z,40.10
2018-05-29T07:41:23.798Z,40.26
2018-05-29T07:42:30.076Z,40.28
2018-05-29T07:43:35.588Z,40.22
2018-05-29T07:44:41.112Z,40.20
2018-05-29T07:45:47.413Z,40.42
2018-05-29T07:46:52.926Z,40.56
2018-05-29T07:47:58.447Z,40.68
2018-05-29T07:49:04.751Z,40.74
2018-05-29T07:50:10.254Z,40.52
2018-05-29T07:51:15.783Z,40.15
2018-05-29T07:52:21.300Z,40.28
2018-05-29T07:53:27.575Z,40.12
2018-05-29T07:54:32.881Z,39.91
2018-05-29T07:55:39.156Z,39.79
2018-05-29T07:56:44.672Z,39.97
2018-05-29T07:57:50.945Z,40.24
2018-05-29T07:58:56.445Z,40.21
2018-05-29T08:00:02.171Z,40.22
2018-05-29T08:01:07.693Z,40.34
2018-05-29T08:02:13.227Z,40.52
2018-05-29T08:03:18.735Z,40.56
2018-05-29T08:04:24.250Z,40.81
2018-05-29T08:05:30.343Z,40.73
2018-05-29T08:06:35.843Z,40.68
2018-05-29T08:07:41.372Z,40.96
2018-05-29T08:08:47.646Z,41.15
2018-05-29T08:09:53.148Z,41.18
2018-05-29T08:10:59.435Z,41.19
2018-05-29T08:12:04.627Z,41.22
2018-05-29T08:13:10.147Z,41.60
2018-05-29T08:14:15.664Z,41.82
2018-05-29T08:15:21.192Z,41.90
2018-05-29T08:16:26.699Z,41.88
2018-05-29T08:17:32.205Z,41.79
2018-05-29T08:18:38.554Z,41.94
2018-05-29T08:19:44.242Z,41.81
2018-05-29T08:20:49.747Z,41.99
2018-05-29T08:21:55.797Z,41.74
2018-05-29T08:23:02.116Z,41.63
2018-05-29T08:24:07.656Z,41.66
2018-05-29T08:25:13.160Z,41.71
2018-05-29T08:26:18.927Z,41.65
2018-05-29T08:27:24.437Z,41.49
2018-05-29T08:28:29.929Z,41.95
2018-05-29T08:29:36.469Z,42.03
2018-05-29T08:30:41.971Z,42.16
2018-05-29T08:31:47.494Z,41.90
2018-05-29T08:32:53.001Z,41.82
2018-05-29T08:33:58.505Z,41.58
2018-05-29T08:35:03.799Z,41.80
2018-05-29T08:36:09.307Z,41.70
2018-05-29T08:37:15.587Z,41.38
2018-05-29T08:38:21.096Z,41.27
2018-05-29T08:39:27.410Z,40.91
2018-05-29T08:40:33.117Z,40.80
2018-05-29T08:41:38.293Z,40.93
2018-05-29T08:42:43.800Z,41.03
2018-05-29T08:43:49.306Z,41.15
2018-05-29T08:44:54.804Z,41.03
2018-05-29T08:46:00.352Z,41.17
2018-05-29T08:47:05.862Z,41.22
2018-05-29T08:48:11.364Z,41.37
2018-05-29T08:49:17.320Z,41.47
2018-05-29T08:50:22.822Z,41.19
2018-05-29T08:51:28.360Z,41.36
2018-05-29T08:52:34.638Z,41.32
2018-05-29T08:53:40.139Z,41.54
2018-05-29T08:54:46.414Z,41.80
2018-05-29T08:55:51.678Z,41.81
2018-05-29T08:56:57.212Z,41.87
2018-05-29T08:58:02.710Z,41.70
2018-05-29T08:59:08.221Z,41.51
2018-05-29T09:00:14.517Z,41.73
2018-05-29T09:01:20.038Z,41.69
2018-05-29T09:02:26.330Z,41.95
2018-05-29T09:03:31.849Z,41.56
2018-05-29T09:04:37.359Z,41.55
2018-05-29T09:05:43.624Z,41.49
2018-05-29T09:06:49.408Z,41.45
2018-05-29T09:07:54.942Z,41.44
2018-05-29T09:09:00.452Z,41.24
2018-05-29T09:10:05.642Z,41.14
2018-05-29T09:11:11.913Z,41.10
2018-05-29T09:12:17.425Z,41.07
2018-05-29T09:13:22.949Z,41.40
2018-05-29T09:14:28.461Z,41.58
2018-05-29T09:15:33.962Z,41.82
2018-05-29T09:16:39.472Z,42.25
2018-05-29T09:17:45.734Z,42.23
2018-05-29T09:18:52.023Z,42.31
2018-05-29T09:19:57.572Z,42.30
2018-05-29T09:21:03.327Z,42.11
2018-05-29T09:22:08.879Z,41.97
2018-05-29T09:23:14.553Z,41.93
2018-05-29T09:24:20.099Z,41.60
2018-05-29T09:25:25.603Z,41.50
2018-05-29T09:26:31.870Z,41.45
2018-05-29T09:27:38.145Z,41.52
2018-05-29T09:28:43.652Z,41.52
2018-05-29T09:29:50.032Z,41.26
2018-05-29T09:30:55.664Z,40.96
2018-05-29T09:32:01.194Z,41.09
2018-05-29T09:33:07.658Z,40.91
2018-05-29T09:34:13.167Z,41.22
2018-05-29T09:35:19.463Z,41.13
2018-05-29T09:36:24.976Z,41.28
2018-05-29T09:37:30.514Z,41.42
2018-05-29T09:38:36.311Z,41.33
2018-05-29T09:39:41.839Z,41.70
2018-05-29T09:40:47.406Z,41.75
2018-05-29T09:41:52.951Z,41.60
2018-05-29T09:42:59.231Z,41.75
2018-05-29T09:44:04.755Z,41.73
2018-05-29T09:45:10.303Z,41.53
2018-05-29T09:46:15.839Z,41.51
2018-05-29T09:47:22.107Z,41.55
2018-05-29T09:48:27.615Z,41.52
2018-05-29T09:49:33.893Z,41.44
2018-05-29T09:50:39.413Z,41.51
2018-05-29T09:51:44.943Z,41.21
2018-05-29T09:52:51.246Z,40.95
2018-05-29T09:53:56.935Z,41.06
2018-05-29T09:55:03.208Z,41.36
2018-05-29T09:56:08.723Z,41.51
2018-05-29T09:57:15.021Z,41.28
2018-05-29T09:58:20.524Z,41.16
2018-05-29T09:59:26.104Z,41.03
2018-05-29T10:00:37.029Z,41.18
2018-05-29T10:01:42.539Z,40.85
2018-05-29T10:02:48.863Z,40.65
2018-05-29T10:03:54.379Z,40.67
2018-05-29T10:04:59.887Z,40.62
2018-05-29T10:06:05.396Z,40.62
2018-05-29T10:07:10.918Z,40.95
2018-05-29T10:08:17.409Z,41.05
2018-05-29T10:09:22.916Z,40.83
2018-05-29T10:10:28.441Z,40.57
2018-05-29T10:11:34.712Z,40.51
2018-05-29T10:12:40.221Z,40.48
2018-05-29T10:13:46.519Z,40.24
2018-05-29T10:14:52.018Z,40.28
2018-05-29T10:15:58.288Z,40.24
2018-05-29T10:17:03.820Z,40.25
2018-05-29T10:18:10.083Z,40.11
2018-05-29T10:19:15.661Z,39.64
2018-05-29T10:20:21.360Z,39.53
2018-05-29T10:21:26.868Z,39.38
2018-05-29T10:22:32.376Z,39.33
2018-05-29T10:23:37.891Z,39.50
2018-05-29T10:24:43.230Z,39.45
2018-05-29T10:25:48.735Z,39.30
2018-05-29T10:26:54.072Z,38.96
2018-05-29T10:27:59.579Z,38.87
2018-05-29T10:29:05.086Z,38.70
2018-05-29T10:30:10.625Z,38.41
2018-05-29T10:31:16.127Z,38.38
2018-05-29T10:32:21.635Z,37.79
2018-05-29T10:33:27.907Z,37.82
2018-05-29T10:34:33.428Z,37.59
2018-05-29T10:35:38.972Z,37.17
2018-05-29T10:36:44.496Z,37.04
2018-05-29T10:37:50.768Z,36.90
2018-05-29T10:38:56.395Z,36.84
2018-05-29T10:40:01.905Z,36.49
2018-05-29T10:41:07.423Z,36.17
2018-05-29T10:42:13.965Z,35.89
2018-05-29T10:43:19.472Z,35.84
2018-05-29T10:44:26.018Z,35.81
2018-05-29T10:45:33.296Z,35.69
2018-05-29T10:46:39.128Z,35.60
2018-05-29T10:47:44.915Z,35.46
2018-05-29T10:48:50.699Z,35.51
2018-05-29T10:49:56.483Z,35.38
2018-05-29T10:51:03.021Z,35.25
2018-05-29T10:52:09.588Z,35.18
2018-05-29T10:53:15.369Z,35.24
2018-05-29T10:54:21.165Z,35.02
2018-05-29T10:55:26.968Z,34.85
2018-05-29T10:56:32.749Z,34.62
2018-05-29T10:57:38.559Z,34.42
2018-05-29T10:58:44.335Z,34.29
2018-05-29T10:59:50.118Z,34.21
2018-05-29T11:00:55.905Z,34.22
2018-05-29T11:02:01.676Z,34.10
2018-05-29T11:03:07.494Z,34.07
2018-05-29T11:04:13.275Z,34.01
2018-05-29T11:05:19.823Z,34.00
2018-05-29T11:06:25.606Z,33.93
2018-05-29T11:07:31.564Z,33.79
2018-05-29T11:08:37.511Z,33.73
2018-05-29T11:09:43.457Z,33.59
2018-05-29T11:10:49.436Z,33.60
2018-05-29T11:11:55.349Z,33.56
2018-05-29T11:13:01.396Z,33.55
2018-05-29T11:14:07.281Z,33.56
2018-05-29T11:15:13.190Z,33.54
2018-05-29T11:16:19.063Z,33.49
2018-05-29T11:17:24.954Z,33.39
2018-05-29T11:18:30.932Z,33.46
2018-05-29T11:19:36.943Z,33.45
2018-05-29T11:20:44.055Z,33.41
2018-05-29T11:21:50.002Z,33.37
2018-05-29T11:22:55.908Z,33.39
2018-05-29T11:24:01.877Z,33.35
2018-05-29T11:25:07.928Z,33.30
2018-05-29T11:26:13.890Z,33.37
2018-05-29T11:27:19.981Z,33.34
2018-05-29T11:28:25.988Z,33.25
2018-05-29T11:29:31.895Z,33.11
2018-05-29T11:30:37.763Z,32.96
2018-05-29T11:31:43.467Z,32.88
2018-05-29T11:32:50.122Z,32.97
2018-05-29T11:33:56.753Z,33.07
2018-05-29T11:35:02.696Z,33.13
2018-05-29T11:36:08.577Z,33.18
2018-05-29T11:37:15.442Z,33.22
2018-05-29T11:38:21.280Z,33.22
2018-05-29T11:39:28.224Z,33.16
2018-05-29T11:40:34.937Z,33.02
2018-05-29T11:41:40.868Z,32.97
2018-05-29T11:42:47.531Z,32.99
2018-05-29T11:43:54.261Z,33.03
2018-05-29T11:45:00.248Z,33.07
2018-05-29T11:46:07.077Z,33.10
2018-05-29T11:47:13.023Z,33.12
2018-05-29T11:48:19.240Z,33.09
2018-05-29T11:49:25.261Z,33.10
2018-05-29T11:50:31.930Z,33.13
2018-05-29T11:51:38.028Z,33.19
2018-05-29T11:52:44.053Z,33.22
2018-05-29T11:53:50.239Z,33.25
2018-05-29T11:54:56.441Z,33.23
2018-05-29T11:56:02.459Z,33.21
2018-05-29T11:57:09.191Z,33.21
2018-05-29T11:58:15.333Z,33.17
2018-05-29T11:59:21.321Z,33.22
2018-05-29T12:00:28.239Z,33.23
2018-05-29T12:01:34.529Z,33.28
2018-05-29T12:02:41.274Z,33.37
2018-05-29T12:03:47.323Z,33.34
2018-05-29T12:04:53.220Z,33.35
2018-05-29T12:05:59.213Z,33.36
2018-05-29T12:07:05.201Z,33.27
2018-05-29T12:08:11.824Z,33.31
2018-05-29T12:09:19.462Z,33.29
2018-05-29T12:10:26.580Z,33.34
2018-05-29T12:11:33.196Z,33.38
2018-05-29T12:12:39.195Z,33.42
2018-05-29T12:13:45.134Z,33.42
2018-05-29T12:14:51.046Z,33.36
2018-05-29T12:15:56.991Z,33.39
2018-05-29T12:17:02.836Z,33.38
2018-05-29T12:18:08.815Z,33.40
2018-05-29T12:19:14.862Z,33.45
2018-05-29T12:20:20.809Z,33.46
2018-05-29T12:21:26.754Z,33.40
2018-05-29T12:22:32.701Z,33.36
2018-05-29T12:23:38.583Z,33.34
2018-05-29T12:24:44.531Z,33.36
2018-05-29T12:25:50.512Z,33.30
2018-05-29T12:26:56.524Z,33.27
2018-05-29T12:28:02.466Z,33.30
2018-05-29T12:29:08.522Z,33.33
2018-05-29T12:30:15.221Z,33.36
2018-05-29T12:31:21.163Z,33.34
2018-05-29T12:32:27.185Z,33.30
2018-05-29T12:33:33.881Z,33.35
2018-05-29T12:34:39.845Z,33.36
2018-05-29T12:35:45.842Z,33.27
2018-05-29T12:36:52.811Z,33.21
2018-05-29T12:37:59.422Z,33.24
2018-05-29T12:39:04.448Z,33.27
2018-05-29T12:40:10.281Z,33.30
2018-05-29T12:41:16.286Z,33.33
2018-05-29T12:42:22.273Z,33.34
2018-05-29T12:43:28.234Z,33.29
2018-05-29T12:44:34.132Z,33.27
2018-05-29T12:45:41.092Z,33.37
2018-05-29T12:46:47.868Z,33.37
2018-05-29T12:47:54.676Z,33.32
2018-05-29T12:49:00.519Z,33.37
2018-05-29T12:50:06.527Z,33.39
2018-05-29T12:51:13.328Z,33.46
2018-05-29T12:52:19.341Z,33.53
2018-05-29T12:53:26.759Z,33.51
2018-05-29T12:54:33.080Z,33.51
2018-05-29T12:55:39.880Z,33.49
2018-05-29T12:56:46.028Z,33.44
2018-05-29T12:57:53.268Z,33.48
2018-05-29T12:59:00.251Z,33.52
2018-05-29T13:00:06.125Z,33.58
2018-05-29T13:01:12.233Z,33.65
2018-05-29T13:02:19.204Z,33.63
2018-05-29T13:03:25.262Z,33.59
2018-05-29T13:04:31.301Z,33.64
2018-05-29T13:05:37.354Z,33.70
2018-05-29T13:06:44.329Z,33.80
2018-05-29T13:07:50.319Z,33.88
2018-05-29T13:08:56.259Z,33.89
2018-05-29T13:10:02.324Z,33.96
2018-05-29T13:11:08.570Z,33.97
2018-05-29T13:12:14.623Z,33.99
2018-05-29T13:13:20.557Z,33.90
2018-05-29T13:14:26.485Z,33.81
2018-05-29T13:15:32.653Z,33.73
2018-05-29T13:16:38.821Z,33.66
2018-05-29T13:17:45.210Z,33.68
2018-05-29T13:18:52.196Z,33.74
2018-05-29T13:19:58.348Z,33.77
2018-05-29T13:21:04.403Z,33.81
2018-05-29T13:22:10.384Z,33.79
2018-05-29T13:23:17.321Z,33.75
2018-05-29T13:24:23.447Z,33.75
2018-05-29T13:25:29.503Z,33.77
2018-05-29T13:26:35.370Z,33.80
2018-05-29T13:27:41.783Z,33.80
2018-05-29T13:28:49.176Z,33.86
2018-05-29T13:29:55.056Z,33.91
2018-05-29T13:31:01.000Z,33.98
2018-05-29T13:32:06.844Z,34.02
2018-05-29T13:33:12.717Z,33.90
2018-05-29T13:34:20.055Z,33.80
2018-05-29T13:35:25.852Z,33.78
2018-05-29T13:36:31.647Z,33.79
2018-05-29T13:37:37.493Z,33.82
2018-05-29T13:38:43.305Z,33.87
2018-05-29T13:39:49.364Z,33.89
2018-05-29T13:40:55.161Z,33.96
2018-05-29T13:42:01.036Z,33.99
2018-05-29T13:43:07.641Z,34.03
2018-05-29T13:44:13.483Z,34.12
2018-05-29T13:45:19.360Z,34.19
2018-05-29T13:46:25.223Z,34.25
2018-05-29T13:47:31.121Z,34.25
2018-05-29T13:48:37.271Z,34.32
2018-05-29T13:49:43.289Z,34.36
2018-05-29T13:50:49.330Z,34.21
2018-05-29T13:51:55.244Z,34.11
2018-05-29T13:53:01.121Z,33.96
2018-05-29T13:54:07.013Z,33.97
2018-05-29T13:55:13.030Z,34.01
2018-05-29T13:56:18.898Z,34.07
2018-05-29T13:57:24.752Z,34.09
2018-05-29T13:58:30.558Z,34.05
2018-05-29T13:59:36.431Z,34.00
2018-05-29T14:00:42.278Z,33.94
2018-05-29T14:01:48.119Z,33.95
2018-05-29T14:02:53.934Z,33.99
2018-05-29T14:03:59.857Z,34.01
2018-05-29T14:05:05.416Z,34.03
2018-05-29T14:06:11.235Z,34.04
2018-05-29T14:07:17.814Z,34.07
2018-05-29T14:08:23.664Z,34.07
2018-05-29T14:09:29.597Z,34.10
2018-05-29T14:10:35.450Z,34.14
2018-05-29T14:11:41.260Z,34.19